Aérodrome :
LOGIN :

S'inscrire | Disclaimer

   EN    FR    IT 

 










Légende :    VFR   VFR Marginal   IFR   IFR Intensif   IFR Très Intensif
Visi : 
Plafond : 
>= 8 km
>= 3000ft
5 à 8 km
1000 à 3000 ft
1500m à 5 km
500 à 1000 ft
800 à 1500m
200 à 500 ft
< 800m
< 200 ft
Symboles :   Orages  Brouillard  Fortes neiges  Fortes précipitations  Vent > 20 kt
SIGMETs :   Divers  Orages  Givrage  Turbulence  Onde Orograph.  Cendres Volcan.






- Altitude de l'aérodrome : 56 ft
- Code IATA : ILY


EGPI - Islay

DERNIER METAR :
  • 180550Z AUTO 28014KT 9999 NCD 05/02 Q1021

METARs EXPIRÉS :
  • 180520Z AUTO 30012KT 9999 FEW033/// 05/03 Q1021
  • 180450Z AUTO 30016KT 9999 NCD 06/03 Q1020
  • 180420Z AUTO 29015KT 9999 NCD 05/02 Q1020 RERA
  • 180350Z AUTO 27013KT 9999 NCD 05/02 Q1019 RERA
  • 180320Z AUTO 27018KT 9999 -RA FEW038/// BKN045/// 05/01 Q1019

TAF TAF EGPI
Valide du 18 à 06h jusqu'au 18 à 15h UTC


180459Z 1806/1815 29012KT 9999 FEW025
PROB30
TEMPO 1806/1809 30015G25KT 7000 SHRA BKN014



MET'MAP, la Météo Aéronautique d'un coup d'oeil ! - Copyright ORBIFLY Décembre 2007 - Disclaimer

ORBIFLY MET'MAP TEAM :

Programmation & Développement : Alexandra Zaïnal
Sur une idée originale de : Baudouin d'Aumeries
Assistance à la programmation : Marc-Olivier Méhu
Soutien technique & logistique : Manuel Goepfert

Contact : metmap@orbifly.com




SOURCES & CREDITS :

   NOAA